createdAt,value
2019-05-09T00:00:44.001Z,86.11
2019-05-09T00:01:43.959Z,86.83
2019-05-09T00:02:44.196Z,86.52
2019-05-09T00:03:44.349Z,86.63
2019-05-09T00:04:44.099Z,86.87
2019-05-09T00:05:44.219Z,86.83
2019-05-09T00:06:43.523Z,86.93
2019-05-09T00:07:44.019Z,86.93
2019-05-09T00:08:44.335Z,86.63
2019-05-09T00:09:44.130Z,86.52
2019-05-09T00:10:45.043Z,86.52
2019-05-09T00:11:44.028Z,86.98
2019-05-09T00:12:43.801Z,86.73
2019-05-09T00:13:43.667Z,86.87
2019-05-09T00:14:43.529Z,87.08
2019-05-09T00:15:43.817Z,87.04
2019-05-09T00:16:44.016Z,86.83
2019-05-09T00:17:43.966Z,86.87
2019-05-09T00:18:44.149Z,86.57
2019-05-09T00:19:43.963Z,87.08
2019-05-09T00:20:43.673Z,86.87
2019-05-09T00:21:43.775Z,87.08
2019-05-09T00:22:43.616Z,86.57
2019-05-09T00:23:43.804Z,86.77
2019-05-09T00:24:44.774Z,86.77
2019-05-09T00:25:43.488Z,86.77
2019-05-09T00:26:44.276Z,86.77
2019-05-09T00:27:43.579Z,86.77
2019-05-09T00:28:44.091Z,87.08
2019-05-09T00:29:43.878Z,86.57
2019-05-09T00:30:43.736Z,86.46
2019-05-09T00:31:43.825Z,86.63
2019-05-09T00:32:43.277Z,86.63
2019-05-09T00:33:44.397Z,86.66
2019-05-09T00:34:44.155Z,86.83
2019-05-09T00:35:44.254Z,86.63
2019-05-09T00:36:43.775Z,86.93
2019-05-09T00:37:43.300Z,85.80
2019-05-09T00:38:43.529Z,85.91
2019-05-09T00:39:43.514Z,86.98
2019-05-09T00:40:55.002Z,86.11
2019-05-09T00:41:44.139Z,85.91
2019-05-09T00:42:44.058Z,86.01
2019-05-09T00:43:43.651Z,85.46
2019-05-09T00:44:43.187Z,85.71
2019-05-09T00:45:43.898Z,85.36
2019-05-09T00:46:43.196Z,84.84
2019-05-09T00:47:43.425Z,84.95
2019-05-09T00:48:43.880Z,84.64
2019-05-09T00:49:43.513Z,84.64
2019-05-09T00:50:43.777Z,85.15
2019-05-09T00:51:43.735Z,84.53
2019-05-09T00:52:43.130Z,84.53
2019-05-09T00:53:44.383Z,84.33
2019-05-09T00:54:43.762Z,84.84
2019-05-09T00:55:43.668Z,84.23
2019-05-09T00:56:43.614Z,83.78
2019-05-09T00:57:43.974Z,83.92
2019-05-09T00:58:44.077Z,84.12
2019-05-09T00:59:44.627Z,83.82
2019-05-09T01:00:43.898Z,84.33
2019-05-09T01:01:43.722Z,83.58
2019-05-09T01:02:43.514Z,83.06
2019-05-09T01:03:43.299Z,83.17
2019-05-09T01:04:43.809Z,83.78
2019-05-09T01:05:43.655Z,83.78
2019-05-09T01:06:43.518Z,83.27
2019-05-09T01:07:43.151Z,83.47
2019-05-09T01:08:44.194Z,82.65
2019-05-09T01:09:43.966Z,83.27
2019-05-09T01:10:43.613Z,82.55
2019-05-09T01:11:44.029Z,82.45
2019-05-09T01:12:43.556Z,82.76
2019-05-09T01:13:43.473Z,82.04
2019-05-09T01:14:43.331Z,81.63
2019-05-09T01:15:44.010Z,81.63
2019-05-09T01:16:44.006Z,82.04
2019-05-09T01:17:44.163Z,81.73
2019-05-09T01:18:43.749Z,81.84
2019-05-09T01:19:43.324Z,81.84
2019-05-09T01:20:44.073Z,81.63
2019-05-09T01:21:43.847Z,81.94
2019-05-09T01:22:43.629Z,81.73
2019-05-09T01:23:43.611Z,81.22
2019-05-09T01:24:44.285Z,81.08
2019-05-09T01:25:43.596Z,81.22
2019-05-09T01:26:43.558Z,81.18
2019-05-09T01:27:43.244Z,81.12
2019-05-09T01:28:44.224Z,81.18
2019-05-09T01:29:43.955Z,81.12
2019-05-09T01:30:43.803Z,80.98
2019-05-09T01:31:43.626Z,80.98
2019-05-09T01:32:43.322Z,81.08
2019-05-09T01:33:43.908Z,80.98
2019-05-09T01:34:43.699Z,80.77
2019-05-09T01:35:43.391Z,80.88
2019-05-09T01:36:43.395Z,80.67
2019-05-09T01:37:43.402Z,80.98
2019-05-09T01:38:43.265Z,80.77
2019-05-09T01:39:44.050Z,81.22
2019-05-09T01:40:43.865Z,81.29
2019-05-09T01:41:43.623Z,81.12
2019-05-09T01:42:43.263Z,80.77
2019-05-09T01:43:44.309Z,80.77
2019-05-09T01:44:44.019Z,81.22
2019-05-09T01:45:43.173Z,81.08
2019-05-09T01:46:43.601Z,81.29
2019-05-09T01:47:43.060Z,81.32
2019-05-09T01:48:43.145Z,81.32
2019-05-09T01:49:43.147Z,81.43
2019-05-09T01:50:43.112Z,81.22
2019-05-09T01:51:44.362Z,81.32
2019-05-09T01:52:43.877Z,81.84
2019-05-09T01:53:43.748Z,81.84
2019-05-09T01:54:43.558Z,81.32
2019-05-09T01:55:43.212Z,81.22
2019-05-09T01:56:43.094Z,81.12
2019-05-09T01:57:45.715Z,81.63
2019-05-09T01:58:43.315Z,81.73
2019-05-09T01:59:44.194Z,81.63
2019-05-09T02:00:43.595Z,81.84
2019-05-09T02:01:43.408Z,81.63
2019-05-09T02:02:43.347Z,81.77
2019-05-09T02:03:44.331Z,82.08
2019-05-09T02:04:43.941Z,81.98
2019-05-09T02:05:43.459Z,82.18
2019-05-09T02:06:44.016Z,81.87
2019-05-09T02:07:43.811Z,81.98
2019-05-09T02:08:43.835Z,81.98
2019-05-09T02:09:43.429Z,82.49
2019-05-09T02:10:44.057Z,82.32
2019-05-09T02:11:44.968Z,82.39
2019-05-09T02:12:43.045Z,82.53
2019-05-09T02:13:44.087Z,82.42
2019-05-09T02:14:43.746Z,82.28
2019-05-09T02:15:43.464Z,82.73
2019-05-09T02:16:43.249Z,82.93
2019-05-09T02:17:57.345Z,83.25
2019-05-09T02:18:44.084Z,83.55
2019-05-09T02:19:43.933Z,83.34
2019-05-09T02:20:43.858Z,83.65
2019-05-09T02:21:43.750Z,83.55
2019-05-09T02:22:43.506Z,83.55
2019-05-09T02:23:43.188Z,83.34
2019-05-09T02:24:44.013Z,83.45
2019-05-09T02:25:43.820Z,83.39
2019-05-09T02:26:43.889Z,83.65
2019-05-09T02:27:43.659Z,83.86
2019-05-09T02:28:43.273Z,83.25
2019-05-09T02:29:43.480Z,83.55
2019-05-09T02:30:44.983Z,83.34
2019-05-09T02:31:44.659Z,83.65
2019-05-09T02:32:44.742Z,83.25
2019-05-09T02:33:45.149Z,83.55
2019-05-09T02:34:44.258Z,83.25
2019-05-09T02:35:52.862Z,83.45
2019-05-09T02:36:42.916Z,83.25
2019-05-09T02:37:41.907Z,83.31
2019-05-09T02:38:41.882Z,82.93
2019-05-09T02:39:41.885Z,82.53
2019-05-09T02:40:41.874Z,82.63
2019-05-09T02:41:59.662Z,82.28
2019-05-09T02:42:42.848Z,82.39
2019-05-09T02:43:41.830Z,82.53
2019-05-09T02:44:41.818Z,82.63
2019-05-09T02:45:41.804Z,82.49
2019-05-09T02:46:41.814Z,82.63
2019-05-09T02:47:41.787Z,82.63
2019-05-09T02:48:41.784Z,83.45
2019-05-09T02:49:41.762Z,83.55
2019-05-09T02:50:41.755Z,83.34
2019-05-09T02:51:41.751Z,83.34
2019-05-09T02:52:41.742Z,83.55
2019-05-09T02:53:41.727Z,83.55
2019-05-09T02:54:41.720Z,83.45
2019-05-09T02:55:41.698Z,83.14
2019-05-09T02:56:41.703Z,83.45
2019-05-09T02:57:41.674Z,83.49
2019-05-09T02:58:41.666Z,83.59
2019-05-09T02:59:41.666Z,83.59
2019-05-09T03:00:41.645Z,83.39
2019-05-09T03:01:41.648Z,84.10
2019-05-09T03:02:41.626Z,84.00
2019-05-09T03:03:41.614Z,85.03
2019-05-09T03:04:41.605Z,84.61
2019-05-09T03:05:41.589Z,84.10
2019-05-09T03:06:41.629Z,85.03
2019-05-09T03:07:41.568Z,85.03
2019-05-09T03:08:41.563Z,85.23
2019-05-09T03:09:41.550Z,84.72
2019-05-09T03:10:41.535Z,85.54
2019-05-09T03:11:41.540Z,85.78
2019-05-09T03:12:41.522Z,85.78
2019-05-09T03:13:41.504Z,85.38
2019-05-09T03:14:41.500Z,85.17
2019-05-09T03:15:41.488Z,85.38
2019-05-09T03:16:41.779Z,84.92
2019-05-09T03:17:41.460Z,85.17
2019-05-09T03:18:41.459Z,84.76
2019-05-09T03:19:41.448Z,85.27
2019-05-09T03:20:41.427Z,84.96
2019-05-09T03:21:41.418Z,85.38
2019-05-09T03:22:41.410Z,85.68
2019-05-09T03:23:41.398Z,85.58
2019-05-09T03:24:41.388Z,85.58
2019-05-09T03:25:41.392Z,85.27
2019-05-09T03:26:41.370Z,84.86
2019-05-09T03:27:41.356Z,85.58
2019-05-09T03:28:41.340Z,85.38
2019-05-09T03:29:41.341Z,85.27
2019-05-09T03:30:41.321Z,85.23
2019-05-09T03:31:41.315Z,85.47
2019-05-09T03:32:41.309Z,85.38
2019-05-09T03:33:41.286Z,85.38
2019-05-09T03:34:41.281Z,84.76
2019-05-09T03:35:41.267Z,85.17
2019-05-09T03:36:41.254Z,85.58
2019-05-09T03:37:41.245Z,84.55
2019-05-09T03:38:41.231Z,85.17
2019-05-09T03:39:41.222Z,84.34
2019-05-09T03:40:41.215Z,84.86
2019-05-09T03:41:41.226Z,85.06
2019-05-09T03:42:43.730Z,84.92
2019-05-09T03:43:41.180Z,84.76
2019-05-09T03:44:41.168Z,84.76
2019-05-09T03:45:41.160Z,85.27
2019-05-09T03:46:41.146Z,84.76
2019-05-09T03:47:41.149Z,84.96
2019-05-09T03:48:41.124Z,84.76
2019-05-09T03:49:41.135Z,84.25
2019-05-09T03:50:41.101Z,84.25
2019-05-09T03:51:41.100Z,85.06
2019-05-09T03:52:41.091Z,84.25
2019-05-09T03:53:41.074Z,84.04
2019-05-09T03:54:41.097Z,84.34
2019-05-09T03:55:41.078Z,84.25
2019-05-09T03:56:41.037Z,84.14
2019-05-09T03:57:41.036Z,84.04
2019-05-09T03:58:41.028Z,83.94
2019-05-09T03:59:41.005Z,84.14
2019-05-09T04:00:40.995Z,84.14
2019-05-09T04:01:40.981Z,84.04
2019-05-09T04:02:40.996Z,83.63
2019-05-09T04:03:40.960Z,83.53
2019-05-09T04:04:40.951Z,83.83
2019-05-09T04:05:54.474Z,83.63
2019-05-09T04:06:41.934Z,83.53
2019-05-09T04:07:40.931Z,83.83
2019-05-09T04:08:41.174Z,83.42
2019-05-09T04:09:40.897Z,83.63
2019-05-09T04:10:40.884Z,83.49
2019-05-09T04:11:40.872Z,83.42
2019-05-09T04:12:52.847Z,83.53
2019-05-09T04:13:41.863Z,83.59
2019-05-09T04:14:40.851Z,83.28
2019-05-09T04:15:40.835Z,83.63
2019-05-09T04:16:40.818Z,83.53
2019-05-09T04:17:40.807Z,83.69
2019-05-09T04:18:40.907Z,83.69
2019-05-09T04:19:40.786Z,83.53
2019-05-09T04:20:40.786Z,83.80
2019-05-09T04:21:40.765Z,83.39
2019-05-09T04:22:40.766Z,83.32
2019-05-09T04:23:40.766Z,83.49
2019-05-09T04:24:40.731Z,83.39
2019-05-09T04:25:40.725Z,83.39
2019-05-09T04:26:40.713Z,83.32
2019-05-09T04:27:40.698Z,83.28
2019-05-09T04:28:40.698Z,83.32
2019-05-09T04:29:40.681Z,83.32
2019-05-09T04:30:40.682Z,83.49
2019-05-09T04:31:40.657Z,83.53
2019-05-09T04:32:40.652Z,83.69
2019-05-09T04:33:40.674Z,84.04
2019-05-09T04:34:40.633Z,83.39
2019-05-09T04:35:40.640Z,83.32
2019-05-09T04:36:40.610Z,83.73
2019-05-09T04:37:40.590Z,84.10
2019-05-09T04:38:40.604Z,84.25
2019-05-09T04:39:40.813Z,84.25
2019-05-09T04:40:44.727Z,84.66
2019-05-09T04:41:41.549Z,84.10
2019-05-09T04:42:44.346Z,84.14
2019-05-09T04:43:40.540Z,83.90
2019-05-09T04:44:40.513Z,84.10
2019-05-09T04:45:41.934Z,84.20
2019-05-09T04:46:40.498Z,83.80
2019-05-09T04:47:43.483Z,84.10
2019-05-09T04:48:40.493Z,83.42
2019-05-09T04:49:45.015Z,83.28
2019-05-09T04:50:40.447Z,83.18
2019-05-09T04:51:40.453Z,83.39
2019-05-09T04:52:40.429Z,83.90
2019-05-09T04:53:40.443Z,83.39
2019-05-09T04:54:40.405Z,83.49
2019-05-09T04:55:40.394Z,83.86
2019-05-09T04:56:40.386Z,83.18
2019-05-09T04:57:40.386Z,83.34
2019-05-09T04:58:40.398Z,83.76
2019-05-09T04:59:40.353Z,83.34
2019-05-09T05:00:40.341Z,82.73
2019-05-09T05:01:40.338Z,82.79
2019-05-09T05:02:40.318Z,82.69
2019-05-09T05:03:40.320Z,82.49
2019-05-09T05:04:40.302Z,83.04
2019-05-09T05:05:40.303Z,82.39
2019-05-09T05:06:40.642Z,82.49
2019-05-09T05:07:40.276Z,81.67
2019-05-09T05:08:40.286Z,81.94
2019-05-09T05:09:40.243Z,81.63
2019-05-09T05:10:40.232Z,81.01
2019-05-09T05:11:40.224Z,81.43
2019-05-09T05:12:40.212Z,81.43
2019-05-09T05:13:40.199Z,81.22
2019-05-09T05:14:40.202Z,81.32
2019-05-09T05:15:40.179Z,81.52
2019-05-09T05:16:40.177Z,80.88
2019-05-09T05:17:40.163Z,81.38
2019-05-09T05:18:40.147Z,80.98
2019-05-09T05:19:40.150Z,80.67
2019-05-09T05:20:40.124Z,81.73
2019-05-09T05:21:40.115Z,81.59
2019-05-09T05:22:40.108Z,81.70
2019-05-09T05:23:40.106Z,81.59
2019-05-09T05:24:40.098Z,80.98
2019-05-09T05:25:40.074Z,81.29
2019-05-09T05:26:40.060Z,81.38
2019-05-09T05:27:40.050Z,80.57
2019-05-09T05:28:40.038Z,81.08
2019-05-09T05:29:40.053Z,80.98
2019-05-09T05:30:40.025Z,80.67
2019-05-09T05:31:40.006Z,80.53
2019-05-09T05:32:39.999Z,78.93
2019-05-09T05:33:40.016Z,79.61
2019-05-09T05:34:39.988Z,78.89
2019-05-09T05:35:39.964Z,79.10
2019-05-09T05:36:39.955Z,78.69
2019-05-09T05:37:39.944Z,78.69
2019-05-09T05:38:39.934Z,79.06
2019-05-09T05:39:39.933Z,79.00
2019-05-09T05:40:45.518Z,77.56
2019-05-09T05:41:40.902Z,77.32
2019-05-09T05:42:39.901Z,77.53
2019-05-09T05:43:44.289Z,77.42
2019-05-09T05:44:39.879Z,76.91
2019-05-09T05:45:39.859Z,76.81
2019-05-09T05:46:39.845Z,77.12
2019-05-09T05:47:39.844Z,77.32
2019-05-09T05:48:39.825Z,76.67
2019-05-09T05:49:39.831Z,76.61
2019-05-09T05:50:39.807Z,76.37
2019-05-09T05:51:39.791Z,76.57
2019-05-09T05:52:39.780Z,76.78
2019-05-09T05:53:39.774Z,75.34
2019-05-09T05:54:39.951Z,74.63
2019-05-09T05:55:39.749Z,75.04
2019-05-09T05:56:39.737Z,74.32
2019-05-09T05:57:39.729Z,75.96
2019-05-09T05:58:39.722Z,76.57
2019-05-09T05:59:41.001Z,74.73
2019-05-09T06:00:39.708Z,74.32
2019-05-09T06:01:39.686Z,75.24
2019-05-09T06:02:39.673Z,75.14
2019-05-09T06:03:39.667Z,74.90
2019-05-09T06:04:39.661Z,74.63
2019-05-09T06:05:39.674Z,74.49
2019-05-09T06:06:39.634Z,74.73
2019-05-09T06:07:39.619Z,74.73
2019-05-09T06:08:39.622Z,74.93
2019-05-09T06:09:39.604Z,75.62
2019-05-09T06:10:39.598Z,75.55
2019-05-09T06:11:39.579Z,75.34
2019-05-09T06:12:39.565Z,75.24
2019-05-09T06:13:53.267Z,74.63
2019-05-09T06:14:40.556Z,75.10
2019-05-09T06:15:39.553Z,74.49
2019-05-09T06:16:39.528Z,73.77
2019-05-09T06:17:39.555Z,74.69
2019-05-09T06:18:39.501Z,74.29
2019-05-09T06:19:39.492Z,74.29
2019-05-09T06:20:39.508Z,74.69
2019-05-09T06:21:39.495Z,73.54
2019-05-09T06:22:39.462Z,73.74
2019-05-09T06:23:39.468Z,73.94
2019-05-09T06:24:39.437Z,73.57
2019-05-09T06:25:39.439Z,74.08
2019-05-09T06:26:39.418Z,73.33
2019-05-09T06:27:42.187Z,73.13
2019-05-09T06:28:39.396Z,73.13
2019-05-09T06:29:39.397Z,73.23
2019-05-09T06:30:41.222Z,73.23
2019-05-09T06:31:39.367Z,73.23
2019-05-09T06:32:39.358Z,73.10
2019-05-09T06:33:46.500Z,73.30
2019-05-09T06:34:42.132Z,72.79
2019-05-09T06:35:39.337Z,73.54
2019-05-09T06:36:39.306Z,72.07
2019-05-09T06:37:39.296Z,72.52
2019-05-09T06:38:39.316Z,73.19
2019-05-09T06:39:39.291Z,73.13
2019-05-09T06:40:39.312Z,73.74
2019-05-09T06:41:39.254Z,73.74
2019-05-09T06:42:39.244Z,73.54
2019-05-09T06:43:39.616Z,74.05
2019-05-09T06:44:39.262Z,73.54
2019-05-09T06:45:41.691Z,73.13
2019-05-09T06:46:39.200Z,72.82
2019-05-09T06:47:39.205Z,73.23
2019-05-09T06:48:39.180Z,72.89
2019-05-09T06:49:39.171Z,72.52
2019-05-09T06:50:39.187Z,72.48
2019-05-09T06:51:39.149Z,72.07
2019-05-09T06:52:39.136Z,72.86
2019-05-09T06:53:39.125Z,73.16
2019-05-09T06:54:41.535Z,71.73
2019-05-09T06:55:39.104Z,71.94
2019-05-09T06:56:39.106Z,71.84
2019-05-09T06:57:42.816Z,71.80
2019-05-09T06:58:39.072Z,70.89
2019-05-09T06:59:39.070Z,70.04
2019-05-09T07:00:39.049Z,68.71
2019-05-09T07:01:39.052Z,69.63
2019-05-09T07:02:39.028Z,68.48
2019-05-09T07:03:39.020Z,66.91
2019-05-09T07:04:39.028Z,67.02
2019-05-09T07:05:39.006Z,67.83
2019-05-09T07:06:38.995Z,68.82
2019-05-09T07:07:38.972Z,68.01
2019-05-09T07:08:38.970Z,67.19
2019-05-09T07:09:38.967Z,64.84
2019-05-09T07:10:38.940Z,65.25
2019-05-09T07:11:38.979Z,65.66
2019-05-09T07:12:38.922Z,66.68
2019-05-09T07:13:38.923Z,64.64
2019-05-09T07:14:41.699Z,65.25
2019-05-09T07:15:38.887Z,65.46
2019-05-09T07:16:38.892Z,65.25
2019-05-09T07:17:38.936Z,64.64
2019-05-09T07:18:38.862Z,64.54
2019-05-09T07:19:38.844Z,65.56
2019-05-09T07:20:38.837Z,64.61
2019-05-09T07:21:38.832Z,64.72
2019-05-09T07:22:39.397Z,63.90
2019-05-09T07:23:38.800Z,64.18
2019-05-09T07:24:38.790Z,62.96
2019-05-09T07:25:38.778Z,63.16
2019-05-09T07:26:38.785Z,63.16
2019-05-09T07:27:39.204Z,63.36
2019-05-09T07:28:38.749Z,63.84
2019-05-09T07:29:38.738Z,63.23
2019-05-09T07:30:38.726Z,63.13
2019-05-09T07:31:38.732Z,63.02
2019-05-09T07:32:38.710Z,62.62
2019-05-09T07:33:38.703Z,63.02
2019-05-09T07:34:38.692Z,62.93
2019-05-09T07:35:38.674Z,61.81
2019-05-09T07:36:38.678Z,61.81
2019-05-09T07:37:38.661Z,61.60
2019-05-09T07:38:38.716Z,61.68
2019-05-09T07:39:38.628Z,61.20
2019-05-09T07:40:38.802Z,61.60
2019-05-09T07:41:38.632Z,60.49
2019-05-09T07:42:39.184Z,61.71
2019-05-09T07:43:38.761Z,62.01
2019-05-09T07:44:48.424Z,62.11
2019-05-09T07:45:39.570Z,61.81
2019-05-09T07:46:38.563Z,62.01
2019-05-09T07:47:38.897Z,61.91
2019-05-09T07:48:38.532Z,61.60
2019-05-09T07:49:38.520Z,61.07
2019-05-09T07:50:39.036Z,61.07
2019-05-09T07:51:38.497Z,60.97
2019-05-09T07:52:38.931Z,61.37
2019-05-09T07:53:38.476Z,60.89
2019-05-09T07:54:38.465Z,61.51
2019-05-09T07:55:38.457Z,62.29
2019-05-09T07:56:38.454Z,62.29
2019-05-09T07:57:46.380Z,61.17
2019-05-09T07:58:39.424Z,61.51
2019-05-09T07:59:39.033Z,62.11
2019-05-09T08:00:38.735Z,62.52
2019-05-09T08:01:38.608Z,61.51
2019-05-09T08:02:38.773Z,62.11
2019-05-09T08:03:38.674Z,62.32
2019-05-09T08:04:38.764Z,63.13
2019-05-09T08:05:38.704Z,62.01
2019-05-09T08:06:38.345Z,62.62
2019-05-09T08:07:38.397Z,61.91
2019-05-09T08:08:38.703Z,62.52
2019-05-09T08:09:38.900Z,62.90
2019-05-09T08:10:38.619Z,62.41
2019-05-09T08:11:38.282Z,63.10
2019-05-09T08:12:39.059Z,62.08
2019-05-09T08:13:39.173Z,62.18
2019-05-09T08:14:38.260Z,62.16
2019-05-09T08:15:38.529Z,62.36
2019-05-09T08:16:38.623Z,62.16
2019-05-09T08:17:38.398Z,62.05
2019-05-09T08:18:38.208Z,61.65
2019-05-09T08:19:38.242Z,61.55
2019-05-09T08:20:40.605Z,61.75
2019-05-09T08:21:38.481Z,62.16
2019-05-09T08:22:42.125Z,62.36
2019-05-09T08:23:39.149Z,61.85
2019-05-09T08:24:38.221Z,61.95
2019-05-09T08:25:38.424Z,62.56
2019-05-09T08:26:39.479Z,62.26
2019-05-09T08:27:38.123Z,62.46
2019-05-09T08:28:39.076Z,62.76
2019-05-09T08:29:38.859Z,62.97
2019-05-09T08:30:40.291Z,63.17
2019-05-09T08:31:40.313Z,64.59
2019-05-09T08:32:38.149Z,64.09
2019-05-09T08:33:38.393Z,65.20
2019-05-09T08:34:38.047Z,65.41
2019-05-09T08:35:38.452Z,65.71
2019-05-09T08:36:38.538Z,64.93
2019-05-09T08:37:39.107Z,66.63
2019-05-09T08:38:39.058Z,67.74
2019-05-09T08:39:38.446Z,67.88
2019-05-09T08:40:38.483Z,67.84
2019-05-09T08:41:38.613Z,68.05
2019-05-09T08:42:38.054Z,66.42
2019-05-09T08:43:37.945Z,66.63
2019-05-09T08:44:41.657Z,65.41
2019-05-09T08:45:38.412Z,65.51
2019-05-09T08:46:37.911Z,64.52
2019-05-09T08:47:38.243Z,65.74
2019-05-09T08:48:38.054Z,66.86
2019-05-09T08:49:37.870Z,66.86
2019-05-09T08:50:39.040Z,67.57
2019-05-09T08:51:50.736Z,67.47
2019-05-09T08:52:38.837Z,66.46
2019-05-09T08:53:38.155Z,65.74
2019-05-09T08:54:38.130Z,64.52
2019-05-09T08:55:38.471Z,64.86
2019-05-09T08:56:38.785Z,64.65
2019-05-09T08:57:37.787Z,66.69
2019-05-09T08:58:38.281Z,65.57
2019-05-09T08:59:38.399Z,65.26
2019-05-09T09:00:39.017Z,66.69
2019-05-09T09:01:54.409Z,66.58
2019-05-09T09:02:38.728Z,67.40
2019-05-09T09:03:37.930Z,69.64
2019-05-09T09:04:38.527Z,72.21
2019-05-09T09:05:38.275Z,71.06
2019-05-09T09:06:38.061Z,70.79
2019-05-09T09:07:38.036Z,71.70
2019-05-09T09:08:38.122Z,70.75
2019-05-09T09:09:38.039Z,71.70
2019-05-09T09:10:38.611Z,70.68
2019-05-09T09:11:38.537Z,69.87
2019-05-09T09:12:38.422Z,68.75
2019-05-09T09:13:37.960Z,68.55
2019-05-09T09:14:38.455Z,69.36
2019-05-09T09:15:58.058Z,68.65
2019-05-09T09:16:41.526Z,68.24
2019-05-09T09:17:38.595Z,69.26
2019-05-09T09:18:38.768Z,65.91
2019-05-09T09:19:38.594Z,66.72
2019-05-09T09:20:38.157Z,66.89
2019-05-09T09:21:38.831Z,66.69
2019-05-09T09:22:37.794Z,64.86
2019-05-09T09:23:44.137Z,65.44
2019-05-09T09:24:38.486Z,65.54
2019-05-09T09:25:39.119Z,63.91
2019-05-09T09:26:38.188Z,64.32
2019-05-09T09:27:38.035Z,65.54
2019-05-09T09:28:38.111Z,64.52
2019-05-09T09:29:38.180Z,65.33
2019-05-09T09:30:38.595Z,66.86
2019-05-09T09:31:37.894Z,65.84
2019-05-09T09:32:38.764Z,65.03
2019-05-09T09:33:37.817Z,65.61
2019-05-09T09:34:37.905Z,66.63
2019-05-09T09:35:38.298Z,66.19
2019-05-09T09:36:39.101Z,64.97
2019-05-09T09:37:45.942Z,64.70
2019-05-09T09:38:38.322Z,64.67
2019-05-09T09:39:44.544Z,65.17
2019-05-09T09:40:38.676Z,65.27
2019-05-09T09:41:38.572Z,64.87
2019-05-09T09:42:39.775Z,65.07
2019-05-09T09:43:38.332Z,66.46
2019-05-09T09:44:39.389Z,65.07
2019-05-09T09:45:37.952Z,65.17
2019-05-09T09:46:37.535Z,65.37
2019-05-09T09:47:39.349Z,66.63
2019-05-09T09:48:38.870Z,65.91
2019-05-09T09:49:38.459Z,65.41
2019-05-09T09:50:38.283Z,66.52
2019-05-09T09:51:38.206Z,66.93
2019-05-09T09:52:38.522Z,66.60
2019-05-09T09:53:38.565Z,67.00
2019-05-09T09:54:38.560Z,67.68
2019-05-09T09:55:38.461Z,65.75
2019-05-09T09:56:38.627Z,66.94
2019-05-09T09:57:37.758Z,65.85
2019-05-09T09:58:37.954Z,65.04
2019-05-09T09:59:38.592Z,64.64
2019-05-09T10:00:38.220Z,65.24
2019-05-09T10:01:38.529Z,66.97
2019-05-09T10:02:37.825Z,65.85
2019-05-09T10:03:37.054Z,66.66
2019-05-09T10:04:37.598Z,66.66
2019-05-09T10:05:38.093Z,64.91
2019-05-09T10:06:38.884Z,65.24
2019-05-09T10:07:38.421Z,66.02
2019-05-09T10:08:39.664Z,65.36
2019-05-09T10:09:36.989Z,62.92
2019-05-09T10:10:36.986Z,62.08
2019-05-09T10:11:36.973Z,62.38
2019-05-09T10:12:43.520Z,60.86
2019-05-09T10:13:37.944Z,60.86
2019-05-09T10:14:36.935Z,60.77
2019-05-09T10:15:38.418Z,61.04
2019-05-09T10:16:39.049Z,61.52
2019-05-09T10:17:38.671Z,60.63
2019-05-09T10:18:38.140Z,61.14
2019-05-09T10:19:38.364Z,61.14
2019-05-09T10:20:38.497Z,61.65
2019-05-09T10:21:38.243Z,61.68
2019-05-09T10:22:44.685Z,60.94
2019-05-09T10:23:38.018Z,60.98
2019-05-09T10:24:36.825Z,60.65
2019-05-09T10:25:38.251Z,61.25
2019-05-09T10:26:38.986Z,58.93
2019-05-09T10:27:38.729Z,59.54
2019-05-09T10:28:38.007Z,59.64
2019-05-09T10:29:38.776Z,60.25
2019-05-09T10:30:38.312Z,60.55
2019-05-09T10:31:39.156Z,59.84
2019-05-09T10:32:38.332Z,60.02
2019-05-09T10:33:37.513Z,59.58
2019-05-09T10:34:37.830Z,59.71
2019-05-09T10:35:38.983Z,59.71
2019-05-09T10:36:38.501Z,60.02
2019-05-09T10:37:39.201Z,60.12
2019-05-09T10:38:38.610Z,60.12
2019-05-09T10:39:38.095Z,60.12
2019-05-09T10:40:40.017Z,60.60
2019-05-09T10:41:37.629Z,58.95
2019-05-09T10:42:37.943Z,57.61
2019-05-09T10:43:39.054Z,56.50
2019-05-09T10:44:37.495Z,56.60
2019-05-09T10:45:40.715Z,56.20
2019-05-09T10:46:49.500Z,55.49
2019-05-09T10:47:37.841Z,54.36
2019-05-09T10:48:38.620Z,54.36
2019-05-09T10:49:37.944Z,53.72
2019-05-09T10:50:42.986Z,54.05
2019-05-09T10:51:37.533Z,54.43
2019-05-09T10:52:36.522Z,53.92
2019-05-09T10:53:36.512Z,53.90
2019-05-09T10:54:36.500Z,53.98
2019-05-09T10:55:38.496Z,53.07
2019-05-09T10:56:38.417Z,53.38
2019-05-09T10:57:41.648Z,52.67
2019-05-09T10:58:37.538Z,52.44
2019-05-09T10:59:37.683Z,52.54
2019-05-09T11:00:39.391Z,51.14
2019-05-09T11:01:38.103Z,51.54
2019-05-09T11:02:36.414Z,51.68
2019-05-09T11:03:37.654Z,49.27
2019-05-09T11:04:37.942Z,49.68
2019-05-09T11:05:36.383Z,49.85
2019-05-09T11:06:38.304Z,50.15
2019-05-09T11:07:38.121Z,49.45
2019-05-09T11:08:38.077Z,49.55
2019-05-09T11:09:38.904Z,48.49
2019-05-09T11:10:38.844Z,49.62
2019-05-09T11:11:36.346Z,50.83
2019-05-09T11:12:36.306Z,49.75
2019-05-09T11:13:38.789Z,51.43
2019-05-09T11:14:37.515Z,50.65
2019-05-09T11:15:37.551Z,51.97
2019-05-09T11:16:45.510Z,51.79
2019-05-09T11:17:38.957Z,50.70
2019-05-09T11:18:36.240Z,51.71
2019-05-09T11:19:36.232Z,51.20
2019-05-09T11:20:36.220Z,52.64
2019-05-09T11:21:38.895Z,53.07
2019-05-09T11:22:38.556Z,52.76
2019-05-09T11:23:36.188Z,52.54
2019-05-09T11:24:43.017Z,52.67
2019-05-09T11:25:38.024Z,52.76
2019-05-09T11:26:36.181Z,52.29
2019-05-09T11:27:38.753Z,53.12
2019-05-09T11:28:36.133Z,54.23
2019-05-09T11:29:38.728Z,54.96
2019-05-09T11:30:38.499Z,54.86
2019-05-09T11:31:38.372Z,56.38
2019-05-09T11:32:38.439Z,57.49
2019-05-09T11:33:38.573Z,57.42
2019-05-09T11:34:37.568Z,58.12
2019-05-09T11:35:38.097Z,59.14
2019-05-09T11:36:37.936Z,57.01
2019-05-09T11:37:38.309Z,58.76
2019-05-09T11:38:43.173Z,58.56
2019-05-09T11:39:41.967Z,59.80
2019-05-09T11:40:37.806Z,59.39
2019-05-09T11:41:38.370Z,61.44
2019-05-09T11:42:38.153Z,60.43
2019-05-09T11:43:38.798Z,61.07
2019-05-09T11:44:38.389Z,61.78
2019-05-09T11:45:35.952Z,63.20
2019-05-09T11:46:38.200Z,66.88
2019-05-09T11:47:42.596Z,67.28
2019-05-09T11:48:38.152Z,65.45
2019-05-09T11:49:35.907Z,67.89
2019-05-09T11:50:35.899Z,66.47
2019-05-09T11:51:35.889Z,64.98
2019-05-09T11:52:38.345Z,66.30
2019-05-09T11:53:35.864Z,65.99
2019-05-09T11:54:35.859Z,66.50
2019-05-09T11:55:42.336Z,65.59
2019-05-09T11:56:38.434Z,69.47
2019-05-09T11:57:38.193Z,70.08
2019-05-09T11:58:37.808Z,67.34
2019-05-09T11:59:37.922Z,68.15
2019-05-09T12:00:38.024Z,66.94
2019-05-09T12:01:35.785Z,68.29
2019-05-09T12:02:38.402Z,70.11
2019-05-09T12:03:35.768Z,70.01
2019-05-09T12:04:37.830Z,70.01
2019-05-09T12:05:37.914Z,70.35
2019-05-09T12:06:38.135Z,71.88
2019-05-09T12:07:37.904Z,72.99
2019-05-09T12:08:35.700Z,73.39
2019-05-09T12:09:38.369Z,73.33
2019-05-09T12:10:38.100Z,72.62
2019-05-09T12:11:39.161Z,73.63
2019-05-09T12:12:38.867Z,72.92
2019-05-09T12:13:37.831Z,74.71
2019-05-09T12:14:38.070Z,74.71
2019-05-09T12:15:38.769Z,75.02
2019-05-09T12:16:37.960Z,72.89
2019-05-09T12:17:50.878Z,74.01
2019-05-09T12:18:37.817Z,75.09
2019-05-09T12:19:38.022Z,72.75
2019-05-09T12:20:37.506Z,71.64
2019-05-09T12:21:44.778Z,72.25
2019-05-09T12:22:36.552Z,72.75
2019-05-09T12:23:37.779Z,71.13
2019-05-09T12:24:35.530Z,71.33
2019-05-09T12:25:35.525Z,72.31
2019-05-09T12:26:35.509Z,72.72
2019-05-09T12:27:35.521Z,71.23
2019-05-09T12:28:38.551Z,72.25
2019-05-09T12:29:35.474Z,70.92
2019-05-09T12:30:37.814Z,71.44
2019-05-09T12:31:35.465Z,71.64
2019-05-09T12:32:35.456Z,71.00
2019-05-09T12:33:35.440Z,71.53
2019-05-09T12:34:35.432Z,70.52
2019-05-09T12:35:38.329Z,70.52
2019-05-09T12:36:35.398Z,71.64
2019-05-09T12:37:37.692Z,70.92
2019-05-09T12:38:35.388Z,71.33
2019-05-09T12:39:37.721Z,71.13
2019-05-09T12:40:35.367Z,70.83
2019-05-09T12:41:35.346Z,72.41
2019-05-09T12:42:35.348Z,71.44
2019-05-09T12:43:35.337Z,70.92
2019-05-09T12:44:35.315Z,69.91
2019-05-09T12:45:35.302Z,71.20
2019-05-09T12:46:39.079Z,69.91
2019-05-09T12:47:35.280Z,70.08
2019-05-09T12:48:35.285Z,69.17
2019-05-09T12:49:35.261Z,69.95
2019-05-09T12:50:35.248Z,69.54
2019-05-09T12:51:37.046Z,69.34
2019-05-09T12:52:35.234Z,68.43